Time;durP1;ratioP1;P1;durP2;ratioP2;P2;SDS_P1;SDS_P2;PMS_P1;PMS_P2;Temp;Humidity;BMP_temperature;BMP_pressure;BME280_temperature;BME280_humidity;BME280_pressure;Samples;Min_cycle;Max_cycle;Signal;HPM_P1;HPM_P2
2023/01/04 00:01:52;;;;;;;31.50;16.65;;;6.10;80.50;;;;;;4093009;28;20110;-87
2023/01/04 00:03:53;;;;;;;33.95;17.27;;;6.00;80.50;;;;;;4108462;28;20093;-87
2023/01/04 00:06:08;;;;;;;29.52;15.35;;;6.00;80.50;;;;;;4123967;28;20658;-86
2023/01/04 00:08:09;;;;;;;31.70;16.50;;;6.00;80.50;;;;;;4107288;28;20031;-86
2023/01/04 00:10:10;;;;;;;29.83;16.17;;;6.00;80.60;;;;;;4107723;28;20077;-84
2023/01/04 00:12:10;;;;;;;30.27;16.10;;;6.10;80.50;;;;;;4088770;28;20035;-86
2023/01/04 00:14:16;;;;;;;30.92;16.25;;;6.10;80.60;;;;;;4119044;28;20195;-85
2023/01/04 00:16:20;;;;;;;31.88;16.52;;;6.10;80.60;;;;;;4122035;28;20042;-85
2023/01/04 00:18:21;;;;;;;33.60;16.30;;;6.10;80.60;;;;;;4092210;28;20082;-85
2023/01/04 00:20:22;;;;;;;30.50;15.68;;;6.10;80.70;;;;;;4101920;28;20039;-85
2023/01/04 00:22:23;;;;;;;29.63;15.82;;;6.20;80.60;;;;;;4132703;28;20467;-86
2023/01/04 00:24:23;;;;;;;30.85;15.10;;;6.20;80.70;;;;;;4091066;28;20028;-85
2023/01/04 00:26:26;;;;;;;29.23;15.27;;;6.20;80.70;;;;;;4103095;28;20037;-84
2023/01/04 00:28:27;;;;;;;26.85;14.35;;;6.20;80.70;;;;;;4117341;28;20030;-85
2023/01/04 00:30:28;;;;;;;28.30;15.40;;;6.10;80.60;;;;;;4104990;28;20046;-84
2023/01/04 00:32:28;;;;;;;30.92;14.60;;;6.20;80.70;;;;;;4122577;28;20045;-84
2023/01/04 00:37:13;;;;;;;27.90;14.23;;;6.10;80.70;;;;;;4121347;28;20033;-85
2023/01/04 00:39:15;;;;;;;28.80;13.38;;;6.10;80.60;;;;;;4093799;28;20054;-85
2023/01/04 00:41:16;;;;;;;23.73;13.25;;;6.20;80.70;;;;;;4123173;28;20038;-85
2023/01/04 00:43:16;;;;;;;26.02;13.13;;;6.20;80.70;;;;;;4105022;28;20489;-86
2023/01/04 00:45:17;;;;;;;26.95;13.40;;;6.10;80.70;;;;;;4120180;28;20088;-85
2023/01/04 00:47:23;;;;;;;27.42;12.98;;;6.10;80.70;;;;;;4124316;28;20593;-85
2023/01/04 00:49:24;;;;;;;26.50;13.27;;;6.10;80.70;;;;;;4121823;28;20543;-85
2023/01/04 00:51:26;;;;;;;24.70;12.88;;;6.30;80.80;;;;;;4123732;28;20030;-85
2023/01/04 00:53:27;;;;;;;20.85;11.25;;;6.10;80.70;;;;;;4123161;28;20041;-84
2023/01/04 00:55:29;;;;;;;24.13;12.30;;;6.10;80.80;;;;;;4135780;28;20766;-86
2023/01/04 00:57:29;;;;;;;23.77;12.00;;;6.20;80.80;;;;;;4122489;28;20116;-84
2023/01/04 00:59:30;;;;;;;29.15;12.13;;;6.10;80.70;;;;;;4104649;28;20757;-84
2023/01/04 01:01:32;;;;;;;21.77;11.10;;;6.10;80.70;;;;;;4103336;28;20156;-84
2023/01/04 01:03:44;;;;;;;25.23;12.15;;;6.20;80.80;;;;;;4120415;28;20026;-85
2023/01/04 01:05:45;;;;;;;21.50;10.98;;;6.10;80.80;;;;;;4122237;28;20034;-84
2023/01/04 01:07:45;;;;;;;19.98;10.20;;;6.20;80.80;;;;;;4117129;28;20090;-85
2023/01/04 01:09:46;;;;;;;18.60;10.00;;;6.20;80.80;;;;;;4117383;28;20034;-85
2023/01/04 01:11:47;;;;;;;23.80;9.88;;;6.30;80.90;;;;;;4090856;28;20925;-85
2023/01/04 01:13:48;;;;;;;27.60;10.82;;;6.20;80.90;;;;;;4103442;28;20252;-84
2023/01/04 01:15:49;;;;;;;21.08;10.20;;;6.30;80.90;;;;;;4103204;28;20037;-86
2023/01/04 01:17:50;;;;;;;25.70;10.63;;;6.30;80.90;;;;;;4097557;28;20031;-85
2023/01/04 01:19:51;;;;;;;21.05;10.27;;;6.20;80.90;;;;;;4092458;28;20179;-86
2023/01/04 01:21:52;;;;;;;20.33;10.60;;;6.20;80.90;;;;;;4122584;28;20131;-85
2023/01/04 01:23:54;;;;;;;20.80;10.48;;;6.20;80.90;;;;;;4089909;28;20046;-85
2023/01/04 01:26:03;;;;;;;21.27;9.85;;;6.20;80.90;;;;;;4100876;28;20042;-86
2023/01/04 01:28:04;;;;;;;18.25;9.43;;;6.20;80.90;;;;;;4098042;28;20126;-86
2023/01/04 01:30:25;;;;;;;18.27;9.02;;;6.30;80.90;;;;;;4102006;28;20035;-85
2023/01/04 01:32:25;;;;;;;18.75;9.23;;;6.20;80.80;;;;;;4107572;28;20030;-85
2023/01/04 01:34:26;;;;;;;18.40;9.00;;;6.20;80.90;;;;;;4104314;28;20934;-85
2023/01/04 01:36:27;;;;;;;20.48;9.30;;;6.20;80.80;;;;;;4092855;28;20023;-85
2023/01/04 01:39:13;;;;;;;21.80;9.05;;;6.30;80.80;;;;;;4114960;28;20031;-86
2023/01/04 01:41:19;;;;;;;;;;;6.30;80.90;;;;;;4119347;28;20125;-84
2023/01/04 01:43:53;;;;;;;15.10;8.35;;;6.30;81.10;;;;;;4087132;28;20005;-84
2023/01/04 01:46:14;;;;;;;19.27;7.47;;;6.40;80.80;;;;;;4117553;28;20049;-86
2023/01/04 01:48:36;;;;;;;18.63;8.30;;;6.40;80.60;;;;;;4131087;28;20042;-85
2023/01/04 01:51:02;;;;;;;20.13;8.48;;;6.30;80.60;;;;;;4104363;28;20031;-85
2023/01/04 01:53:26;;;;;;;15.90;7.47;;;6.30;80.70;;;;;;4134303;28;20048;-85
2023/01/04 01:55:48;;;;;;;;;;;6.40;80.80;;;;;;4121953;28;20038;-84
2023/01/04 01:57:51;;;;;;;17.08;7.70;;;6.40;81.00;;;;;;4103387;28;19906;-85
2023/01/04 01:59:54;;;;;;;14.02;7.35;;;6.30;80.60;;;;;;4118755;28;20644;-86
2023/01/04 02:01:56;;;;;;;17.40;7.97;;;6.20;80.50;;;;;;4132710;28;20066;-86
2023/01/04 02:03:56;;;;;;;13.50;7.22;;;6.30;80.80;;;;;;4135399;28;20037;-85
2023/01/04 02:06:00;;;;;;;15.25;7.63;;;6.30;80.80;;;;;;4089173;28;20027;-84
2023/01/04 02:11:20;;;;;;;14.07;7.47;;;6.20;81.00;;;;;;4025618;29;20042;-85
2023/01/04 02:14:25;;;;;;;11.43;6.50;;;6.40;80.90;;;;;;4013049;29;20045;-85
2023/01/04 02:16:11;;;;;;;18.63;7.60;;;6.30;80.80;;;;;;4023344;29;20182;-84
2023/01/04 02:18:16;;;;;;;16.55;6.25;;;6.30;80.90;;;;;;3998368;29;20086;-85
2023/01/04 02:20:41;;;;;;;15.50;6.68;;;6.20;80.80;;;;;;4028115;29;20054;-84
2023/01/04 02:23:13;;;;;;;14.38;6.55;;;6.40;81.00;;;;;;3997614;29;20231;-84
2023/01/04 02:29:01;;;;;;;15.45;6.38;;;6.30;81.00;;;;;;4012857;29;20105;-86
2023/01/04 02:31:10;;;;;;;11.95;5.85;;;6.30;81.00;;;;;;4030450;29;20032;-84
2023/01/04 02:33:28;;;;;;;12.60;5.57;;;6.20;80.80;;;;;;4013364;29;20045;-85
2023/01/04 02:39:04;;;;;;;13.55;5.13;;;6.30;81.10;;;;;;4030768;29;20061;-85
2023/01/04 02:41:31;;;;;;;13.88;5.28;;;6.20;80.80;;;;;;3994714;29;20545;-85
2023/01/04 02:46:39;;;;;;;13.65;4.80;;;6.20;81.00;;;;;;4051468;29;20056;-85
2023/01/04 02:51:43;;;;;;;11.05;4.80;;;6.20;80.90;;;;;;4122916;28;20077;-85
2023/01/04 02:54:09;;;;;;;11.38;4.60;;;6.20;80.90;;;;;;4121614;28;20125;-84
2023/01/04 02:56:50;;;;;;;9.27;4.57;;;6.40;81.00;;;;;;4120744;28;20125;-86
2023/01/04 02:59:22;;;;;;;9.15;4.30;;;6.20;81.00;;;;;;4122258;28;20050;-84
2023/01/04 03:08:07;;;;;;;14.63;3.83;;;6.20;81.00;;;;;;4124009;28;20105;-86
2023/01/04 03:10:52;;;;;;;8.68;3.45;;;6.20;81.70;;;;;;4138230;28;20476;-84
2023/01/04 03:13:30;;;;;;;7.90;3.42;;;6.20;81.10;;;;;;4107754;28;20026;-85
2023/01/04 03:16:02;;;;;;;13.85;3.30;;;6.30;81.20;;;;;;4105231;28;20074;-85
2023/01/04 03:18:08;;;;;;;6.90;3.08;;;6.30;81.20;;;;;;4103723;28;20024;-85
2023/01/04 03:20:11;;;;;;;10.07;3.80;;;6.20;81.00;;;;;;4105366;28;20102;-84
2023/01/04 03:37:36;;;;;;;6.28;2.83;;;6.20;81.20;;;;;;4131809;28;20080;-85
2023/01/04 03:48:37;;;;;;;8.98;2.85;;;6.30;81.40;;;;;;4126793;28;20023;-85
2023/01/04 03:51:07;;;;;;;5.15;2.38;;;6.20;81.50;;;;;;4128391;28;20034;-84
2023/01/04 03:53:29;;;;;;;7.43;2.67;;;6.30;81.40;;;;;;4127809;28;20034;-85
2023/01/04 03:55:51;;;;;;;6.93;2.63;;;6.30;81.40;;;;;;4128846;28;20037;-85
2023/01/04 03:58:13;;;;;;;16.55;3.08;;;6.40;81.40;;;;;;4112515;28;20097;-84
2023/01/04 04:00:33;;;;;;;8.57;2.40;;;6.20;81.30;;;;;;4121393;28;20066;-85
2023/01/04 04:03:06;;;;;;;5.85;2.35;;;6.30;81.40;;;;;;4125745;28;20042;-84
2023/01/04 04:10:00;;;;;;;10.38;2.42;;;6.30;81.50;;;;;;4123850;28;20035;-85
2023/01/04 04:12:01;;;;;;;8.35;2.30;;;6.30;81.60;;;;;;4137638;28;20500;-85
2023/01/04 04:14:01;;;;;;;7.28;2.78;;;6.30;81.60;;;;;;4101089;28;20602;-84
2023/01/04 04:16:02;;;;;;;6.25;2.28;;;6.30;81.70;;;;;;4136408;28;20097;-85
2023/01/04 04:18:28;;;;;;;5.13;2.30;;;6.30;81.60;;;;;;4109305;28;20588;-86
2023/01/04 04:20:28;;;;;;;10.35;2.80;;;6.30;81.70;;;;;;4123274;28;20038;-85
2023/01/04 04:22:29;;;;;;;5.60;2.53;;;6.30;81.70;;;;;;4113236;28;20383;-85
2023/01/04 04:24:31;;;;;;;5.40;2.33;;;6.30;81.70;;;;;;4110509;28;20062;-85
2023/01/04 04:26:32;;;;;;;6.68;2.17;;;6.30;81.70;;;;;;4128372;28;20544;-84
2023/01/04 04:28:33;;;;;;;4.80;1.98;;;6.40;81.70;;;;;;4112118;28;20049;-85
2023/01/04 04:30:53;;;;;;;7.90;2.33;;;6.30;81.70;;;;;;4116194;28;20111;-84
2023/01/04 04:32:55;;;;;;;8.32;2.30;;;6.30;81.60;;;;;;4126892;28;20097;-85
2023/01/04 04:35:55;;;;;;;7.68;2.42;;;6.40;81.70;;;;;;4111030;28;20030;-85
2023/01/04 04:37:57;;;;;;;7.80;2.97;;;6.40;81.80;;;;;;4095900;28;20072;-86
2023/01/04 04:42:59;;;;;;;6.57;2.42;;;6.50;81.70;;;;;;4058666;29;20761;-84
2023/01/04 04:45:00;;;;;;;6.60;2.35;;;6.30;81.60;;;;;;4062173;29;20032;-85
2023/01/04 04:47:20;;;;;;;3.78;2.25;;;6.40;81.70;;;;;;4080160;29;20191;-84
2023/01/04 04:49:41;;;;;;;5.47;2.20;;;6.30;81.70;;;;;;4079073;29;20107;-85
2023/01/04 04:54:16;;;;;;;6.97;2.00;;;6.40;81.70;;;;;;5022351;23;20202;-89
2023/01/04 04:56:37;;;;;;;11.32;2.67;;;6.40;82.50;;;;;;4123427;28;20053;-88
2023/01/04 04:58:58;;;;;;;7.60;1.88;;;6.40;81.70;;;;;;4124855;28;20046;-90
2023/01/04 05:01:19;;;;;;;7.25;2.00;;;6.40;81.70;;;;;;4120216;28;20038;-90
2023/01/04 05:03:39;;;;;;;5.72;2.15;;;6.40;81.70;;;;;;4124104;28;20044;-89
2023/01/04 05:06:00;;;;;;;5.43;1.88;;;6.40;81.80;;;;;;4123813;28;20105;-90
2023/01/04 05:08:21;;;;;;;7.25;1.88;;;6.40;81.80;;;;;;4124718;28;20062;-90
2023/01/04 05:10:42;;;;;;;9.30;1.90;;;6.40;81.80;;;;;;4123240;28;20062;-88
2023/01/04 05:13:00;;;;;;;6.10;1.60;;;6.40;81.90;;;;;;4123491;28;20026;-89
2023/01/04 05:15:20;;;;;;;4.13;1.50;;;6.50;82.00;;;;;;4134515;28;20034;-88
2023/01/04 05:17:41;;;;;;;4.15;1.65;;;6.40;81.90;;;;;;4126744;28;20058;-89
2023/01/04 05:20:03;;;;;;;3.55;1.48;;;6.60;82.10;;;;;;4131942;28;20037;-89
2023/01/04 05:22:24;;;;;;;4.10;1.50;;;6.50;82.00;;;;;;4133572;28;20068;-89
2023/01/04 05:24:44;;;;;;;3.45;1.45;;;6.50;82.10;;;;;;4124264;28;20041;-90
2023/01/04 05:27:05;;;;;;;3.25;1.70;;;6.50;82.10;;;;;;4123879;28;20058;-89
2023/01/04 05:32:05;;;;;;;2.92;1.10;;;6.50;82.20;;;;;;4125533;28;20034;-88
2023/01/04 05:34:25;;;;;;;1.38;0.95;;;6.60;82.20;;;;;;4129385;28;20030;-89
2023/01/04 05:36:46;;;;;;;3.00;1.33;;;6.60;82.20;;;;;;4132837;28;20026;-90
2023/01/04 05:39:07;;;;;;;4.05;1.20;;;6.70;82.40;;;;;;4124378;28;20034;-90
2023/01/04 05:43:38;;;;;;;2.95;1.17;;;6.60;82.30;;;;;;4128039;28;20554;-89
2023/01/04 05:45:40;;;;;;;2.72;1.02;;;6.60;82.40;;;;;;4119666;28;20131;-90
2023/01/04 05:47:40;;;;;;;2.95;1.20;;;6.60;82.40;;;;;;4121902;28;20030;-89
2023/01/04 05:49:41;;;;;;;2.15;1.02;;;6.60;82.40;;;;;;4118935;28;20031;-89
2023/01/04 05:51:42;;;;;;;1.75;0.80;;;6.70;82.70;;;;;;4105501;28;20133;-88
2023/01/04 05:53:43;;;;;;;2.10;0.80;;;6.60;82.60;;;;;;4105991;28;20033;-89
2023/01/04 05:55:46;;;;;;;2.95;1.13;;;6.70;82.60;;;;;;4139942;28;20069;-88
2023/01/04 05:57:47;;;;;;;2.45;1.00;;;6.80;82.70;;;;;;4139213;28;20112;-88
2023/01/04 05:59:47;;;;;;;1.23;0.98;;;6.70;82.70;;;;;;4122315;28;20521;-89
2023/01/04 06:01:48;;;;;;;6.15;1.33;;;6.70;82.70;;;;;;4105574;28;20046;-89
2023/01/04 06:03:49;;;;;;;1.23;0.80;;;6.70;82.70;;;;;;4123498;28;20041;-89
2023/01/04 06:05:50;;;;;;;2.55;0.85;;;6.70;82.80;;;;;;4131682;28;20030;-87
2023/01/04 06:07:51;;;;;;;4.40;1.08;;;6.70;82.70;;;;;;4130597;28;20649;-87
2023/01/04 06:09:52;;;;;;;3.90;0.73;;;6.70;83.10;;;;;;4138994;28;20093;-90
2023/01/04 06:11:53;;;;;;;3.90;0.90;;;6.70;82.90;;;;;;4127609;28;20561;-90
2023/01/04 06:13:54;;;;;;;1.92;0.80;;;6.90;83.10;;;;;;4125717;28;20034;-90
2023/01/04 06:15:54;;;;;;;0.95;0.60;;;6.80;82.90;;;;;;4125591;28;20038;-91
2023/01/04 06:17:55;;;;;;;2.30;0.55;;;6.80;83.00;;;;;;4123749;28;20561;-90
2023/01/04 06:19:55;;;;;;;1.27;0.60;;;6.90;83.00;;;;;;4104480;28;20066;-88
2023/01/04 06:21:57;;;;;;;0.93;0.60;;;6.90;83.10;;;;;;4122354;28;20536;-90
2023/01/04 06:23:58;;;;;;;1.67;0.70;;;6.80;82.90;;;;;;4126622;28;20026;-88
2023/01/04 06:25:58;;;;;;;3.00;0.77;;;7.00;83.10;;;;;;4123728;28;20113;-88
2023/01/04 06:27:59;;;;;;;1.60;0.68;;;6.90;83.00;;;;;;4122356;28;20046;-89
2023/01/04 06:29:59;;;;;;;1.42;0.57;;;6.80;83.00;;;;;;4121864;28;20521;-89
2023/01/04 06:32:01;;;;;;;0.90;0.45;;;6.90;83.10;;;;;;4121259;28;20022;-89
2023/01/04 06:34:03;;;;;;;2.25;0.50;;;7.00;83.30;;;;;;4101648;28;20095;-88
2023/01/04 06:36:24;;;;;;;1.77;0.45;;;6.90;83.20;;;;;;4122825;28;20042;-89
2023/01/04 06:38:44;;;;;;;0.70;0.25;;;7.00;83.30;;;;;;4120998;28;20482;-89
2023/01/04 06:41:05;;;;;;;0.68;0.35;;;7.00;83.50;;;;;;4117881;28;20168;-88
2023/01/04 06:43:26;;;;;;;0.63;0.50;;;7.00;83.50;;;;;;4116662;28;20026;-89
2023/01/04 06:45:46;;;;;;;0.40;0.22;;;7.00;83.50;;;;;;4118425;28;20038;-89
2023/01/04 06:48:07;;;;;;;7.72;0.45;;;7.10;83.70;;;;;;4123066;28;20104;-89
2023/01/04 06:50:28;;;;;;;4.63;0.60;;;7.10;83.90;;;;;;4120411;28;20027;-89
2023/01/04 06:52:49;;;;;;;2.05;0.70;;;7.10;83.90;;;;;;4127974;28;20030;-91
2023/01/04 06:55:08;;;;;;;0.45;0.43;;;7.10;84.00;;;;;;4141558;28;20452;-90
2023/01/04 06:57:29;;;;;;;0.43;0.32;;;7.10;84.00;;;;;;4141272;28;20072;-91
2023/01/04 06:59:50;;;;;;;0.95;0.32;;;7.10;84.00;;;;;;4135156;28;20042;-90
2023/01/04 07:02:14;;;;;;;0.20;0.20;;;7.10;84.20;;;;;;4128498;28;20099;-89
2023/01/04 07:04:35;;;;;;;0.93;0.40;;;7.20;84.40;;;;;;4132273;28;20034;-91
2023/01/04 07:06:56;;;;;;;1.85;0.73;;;7.20;84.60;;;;;;4126868;28;20065;-90
2023/01/04 07:09:17;;;;;;;2.20;0.30;;;7.20;84.50;;;;;;4123706;28;20038;-90
2023/01/04 07:11:38;;;;;;;2.78;0.57;;;7.30;84.70;;;;;;4131381;28;20117;-91
2023/01/04 07:13:39;;;;;;;1.85;0.30;;;7.30;84.60;;;;;;4123406;28;20034;-91
2023/01/04 07:15:39;;;;;;;2.53;0.30;;;7.40;84.90;;;;;;4122775;28;20526;-92
2023/01/04 07:17:40;;;;;;;0.63;0.20;;;7.40;85.30;;;;;;4121538;28;20029;-90
2023/01/04 07:19:41;;;;;;;1.65;0.40;;;7.40;85.20;;;;;;4121587;28;20108;-87
2023/01/04 07:21:41;;;;;;;0.30;0.17;;;7.50;86.20;;;;;;4103439;28;20046;-88
2023/01/04 07:23:43;;;;;;;4.32;0.30;;;7.40;85.60;;;;;;4121683;28;20034;-89
2023/01/04 07:25:43;;;;;;;0.40;0.10;;;7.50;85.90;;;;;;4127830;28;20030;-89
2023/01/04 07:27:44;;;;;;;0.35;0.08;;;7.50;86.00;;;;;;4117437;28;20049;-91
2023/01/04 07:29:45;;;;;;;0.22;0.10;;;7.60;86.00;;;;;;4118385;28;20037;-91
2023/01/04 07:31:47;;;;;;;0.10;0.10;;;7.70;86.10;;;;;;4100192;28;20966;-90
2023/01/04 07:33:49;;;;;;;0.22;0.10;;;7.60;86.20;;;;;;4127680;28;20031;-89
2023/01/04 07:35:50;;;;;;;0.10;0.00;;;7.80;86.40;;;;;;4120773;28;20061;-91
2023/01/04 07:37:51;;;;;;;2.08;0.05;;;7.70;86.50;;;;;;4133951;28;20041;-90
2023/01/04 07:39:51;;;;;;;2.90;0.10;;;7.70;86.60;;;;;;4103830;28;20039;-89
2023/01/04 07:41:52;;;;;;;0.00;0.00;;;7.80;86.70;;;;;;4121906;28;20038;-90
2023/01/04 07:43:54;;;;;;;0.65;0.00;;;7.80;86.70;;;;;;4136349;28;20058;-89
2023/01/04 07:45:54;;;;;;;0.15;0.10;;;7.90;86.80;;;;;;4123029;28;20030;-90
2023/01/04 07:47:56;;;;;;;0.70;0.20;;;8.10;87.00;;;;;;4136489;28;20031;-91
2023/01/04 07:49:58;;;;;;;0.47;0.00;;;8.00;86.80;;;;;;4124002;28;20474;-89
2023/01/04 07:51:59;;;;;;;0.40;0.10;;;8.00;87.20;;;;;;4121755;28;20421;-92
2023/01/04 07:54:00;;;;;;;0.03;0.00;;;8.00;87.10;;;;;;4106689;28;20023;-91
2023/01/04 07:56:00;;;;;;;0.20;0.08;;;8.10;87.20;;;;;;4122819;28;20036;-90
2023/01/04 07:58:21;;;;;;;0.10;0.00;;;8.20;87.10;;;;;;4119510;28;20034;-90
2023/01/04 08:00:22;;;;;;;0.13;0.10;;;8.20;87.30;;;;;;4117571;28;20039;-90
2023/01/04 08:02:42;;;;;;;0.88;0.00;;;8.20;87.00;;;;;;4113585;28;20489;-88
2023/01/04 08:05:04;;;;;;;0.00;0.00;;;8.30;87.20;;;;;;4126875;28;20461;-90
2023/01/04 08:07:10;;;;;;;0.20;0.10;;;8.30;87.20;;;;;;4109421;28;20042;-90
2023/01/04 08:09:30;;;;;;;1.08;0.10;;;8.50;87.20;;;;;;4122336;28;20490;-90
2023/01/04 08:11:51;;;;;;;0.85;0.00;;;8.50;87.30;;;;;;4125705;28;20030;-91
2023/01/04 08:14:12;;;;;;;0.32;0.28;;;8.40;87.20;;;;;;4114235;28;20509;-90
2023/01/04 08:16:35;;;;;;;0.20;0.10;;;8.60;87.10;;;;;;4125063;28;20034;-90
2023/01/04 08:18:58;;;;;;;0.20;0.10;;;8.50;87.10;;;;;;4146817;28;20029;-88
2023/01/04 08:21:19;;;;;;;0.00;0.00;;;8.60;87.20;;;;;;4114940;28;20502;-87
2023/01/04 08:23:40;;;;;;;0.50;0.00;;;8.60;87.10;;;;;;4115608;28;20614;-88
2023/01/04 08:25:41;;;;;;;0.00;0.00;;;8.60;86.90;;;;;;4118909;28;20039;-88
2023/01/04 08:27:41;;;;;;;0.73;0.10;;;8.70;86.90;;;;;;4113917;28;20085;-87
2023/01/04 08:29:42;;;;;;;0.85;0.10;;;8.60;87.00;;;;;;4115432;28;20042;-87
2023/01/04 08:31:43;;;;;;;0.73;0.20;;;8.60;87.20;;;;;;4117903;28;20658;-92
2023/01/04 08:33:44;;;;;;;1.52;0.10;;;8.70;87.10;;;;;;4113919;28;20162;-91
2023/01/04 08:35:45;;;;;;;1.50;0.20;;;8.80;87.10;;;;;;4121082;28;20042;-92
2023/01/04 08:37:46;;;;;;;2.88;0.30;;;8.70;87.00;;;;;;4124092;28;20029;-91
2023/01/04 08:39:47;;;;;;;2.92;0.20;;;8.90;87.20;;;;;;4121971;28;20138;-92
2023/01/04 08:41:52;;;;;;;0.03;0.00;;;8.80;87.00;;;;;;4125774;28;20038;-91
2023/01/04 08:43:53;;;;;;;0.22;0.22;;;9.00;87.20;;;;;;4125059;28;20740;-92
2023/01/04 08:45:53;;;;;;;1.25;0.20;;;9.00;87.00;;;;;;4108743;28;20129;-92
2023/01/04 08:47:54;;;;;;;0.82;0.32;;;9.00;86.90;;;;;;4106577;28;20031;-93
2023/01/04 08:49:55;;;;;;;2.28;0.45;;;8.90;87.00;;;;;;4118538;28;20121;-92
2023/01/04 08:51:56;;;;;;;1.42;0.50;;;8.90;86.90;;;;;;4120523;28;20033;-92
2023/01/04 08:54:17;;;;;;;4.00;0.82;;;8.90;87.20;;;;;;4136472;28;20022;-93
2023/01/04 08:56:38;;;;;;;0.30;0.20;;;9.00;87.20;;;;;;4137039;28;20038;-88
2023/01/04 08:59:00;;;;;;;0.52;0.30;;;9.10;87.20;;;;;;4123487;28;20034;-90
2023/01/04 09:01:13;;;;;;;1.95;0.10;;;9.00;87.20;;;;;;4116630;28;20045;-91
2023/01/04 09:03:14;;;;;;;1.67;0.50;;;9.10;87.10;;;;;;4125137;28;20034;-90
2023/01/04 09:05:15;;;;;;;1.27;0.20;;;9.00;87.10;;;;;;4138895;28;20046;-93
2023/01/04 09:07:16;;;;;;;1.20;0.50;;;9.10;87.70;;;;;;4134779;28;20026;-91
2023/01/04 09:09:18;;;;;;;0.50;0.15;;;9.10;86.90;;;;;;4123292;28;20094;-93
2023/01/04 09:11:20;;;;;;;2.30;0.30;;;9.10;87.00;;;;;;4128786;28;20034;-92
2023/01/04 09:13:21;;;;;;;4.07;0.63;;;9.10;86.80;;;;;;4139352;28;20038;-91
2023/01/04 09:15:22;;;;;;;1.45;0.30;;;9.20;86.90;;;;;;4101923;28;20549;-89
2023/01/04 09:17:23;;;;;;;4.30;0.22;;;9.20;86.90;;;;;;4125821;28;20045;-88
2023/01/04 09:19:24;;;;;;;1.67;0.40;;;9.30;86.90;;;;;;4115358;28;20030;-87
2023/01/04 09:21:24;;;;;;;3.15;0.43;;;9.20;86.70;;;;;;4115485;28;20461;-87
2023/01/04 09:23:27;;;;;;;2.95;0.50;;;9.30;86.80;;;;;;4094706;28;20030;-86
2023/01/04 09:25:30;;;;;;;3.85;0.93;;;9.20;86.70;;;;;;4118515;28;20849;-88
2023/01/04 09:27:32;;;;;;;5.70;0.88;;;9.30;86.70;;;;;;4113465;28;20394;-88
2023/01/04 09:29:33;;;;;;;8.85;1.38;;;9.40;86.80;;;;;;4118811;28;20034;-89
2023/01/04 09:31:33;;;;;;;5.32;1.20;;;9.30;86.80;;;;;;4124065;28;20028;-88
2023/01/04 09:33:34;;;;;;;7.03;1.20;;;9.40;86.70;;;;;;4129152;28;20034;-89
2023/01/04 09:35:35;;;;;;;7.95;1.25;;;9.30;86.70;;;;;;4115856;28;20163;-88
2023/01/04 09:37:38;;;;;;;4.13;1.10;;;9.40;86.70;;;;;;4122840;28;20101;-91
2023/01/04 09:39:40;;;;;;;7.47;1.15;;;9.40;86.60;;;;;;4124356;28;20300;-90
2023/01/04 09:41:54;;;;;;;10.98;1.48;;;9.50;86.60;;;;;;4100690;28;20031;-88
2023/01/04 09:44:02;;;;;;;10.20;1.70;;;9.40;86.50;;;;;;4118189;28;20041;-88
2023/01/04 09:46:46;;;;;;;16.48;2.78;;;9.50;86.50;;;;;;4130523;28;20045;-87
2023/01/04 09:49:20;;;;;;;13.15;2.20;;;9.40;87.10;;;;;;4127945;28;20101;-87
2023/01/04 09:51:47;;;;;;;25.38;2.42;;;9.50;86.30;;;;;;4114203;28;20121;-87
2023/01/04 09:58:47;;;;;;;22.38;3.42;;;9.40;85.90;;;;;;3629089;27;15762275;-87
2023/01/04 10:01:09;;;;;;;20.30;3.17;;;9.20;86.70;;;;;;4165267;28;20075;-85
2023/01/04 10:03:45;;;;;;;20.27;3.15;;;9.20;86.90;;;;;;4168051;28;20036;-85
2023/01/04 10:05:46;;;;;;;18.83;3.80;;;9.20;87.00;;;;;;4139057;28;20077;-85
2023/01/04 10:07:47;;;;;;;17.52;3.47;;;9.30;87.70;;;;;;4107183;28;20047;-85
2023/01/04 10:09:50;;;;;;;22.77;3.38;;;9.30;86.90;;;;;;4114247;28;20225;-87
2023/01/04 10:12:47;;;;;;;18.80;2.72;;;9.30;86.90;;;;;;4134048;28;20164;-87
2023/01/04 10:15:03;;;;;;;28.45;4.32;;;9.30;87.00;;;;;;4121271;28;20575;-86
2023/01/04 10:17:31;;;;;;;27.55;3.80;;;9.30;86.90;;;;;;4121884;28;20038;-84
2023/01/04 10:20:16;;;;;;;31.17;4.00;;;9.40;86.90;;;;;;4105281;28;20062;-85
2023/01/04 10:22:35;;;;;;;19.55;3.50;;;9.40;86.90;;;;;;4075681;29;20408;-87
2023/01/04 10:24:54;;;;;;;21.15;3.53;;;9.40;86.80;;;;;;4111078;28;20497;-88
2023/01/04 10:27:07;;;;;;;19.25;3.03;;;9.40;86.70;;;;;;4123052;28;20066;-87
2023/01/04 10:29:41;;;;;;;30.05;3.75;;;9.60;86.70;;;;;;4090367;28;20050;-84
2023/01/04 10:32:16;;;;;;;24.60;2.78;;;9.50;86.70;;;;;;4109096;28;20425;-85
2023/01/04 10:34:18;;;;;;;21.95;3.00;;;9.50;86.60;;;;;;4123622;28;20177;-84
2023/01/04 10:36:23;;;;;;;21.13;2.45;;;9.50;86.60;;;;;;4103413;28;20043;-85
2023/01/04 10:38:31;;;;;;;21.10;3.72;;;9.60;86.50;;;;;;4107123;28;20061;-85
2023/01/04 10:40:38;;;;;;;21.33;3.38;;;9.60;87.30;;;;;;4105364;28;20026;-86
2023/01/04 10:43:00;;;;;;;19.95;3.55;;;9.60;86.40;;;;;;4105695;28;20154;-86
2023/01/04 10:45:32;;;;;;;29.17;4.57;;;9.50;86.60;;;;;;4141941;28;20033;-87
2023/01/04 10:47:37;;;;;;;25.38;5.20;;;9.50;86.50;;;;;;4151048;28;20026;-86
2023/01/04 10:49:48;;;;;;;25.15;4.15;;;9.60;86.40;;;;;;4158796;28;20034;-86
2023/01/04 10:52:00;;;;;;;24.17;4.88;;;9.70;86.40;;;;;;4174619;28;20473;-86
2023/01/04 10:54:53;;;;;;;33.53;4.88;;;9.60;86.30;;;;;;4171676;28;20033;-87
2023/01/04 10:57:01;;;;;;;34.13;5.75;;;9.60;86.40;;;;;;4116877;28;20593;-87
2023/01/04 10:59:34;;;;;;;32.15;4.65;;;9.60;86.20;;;;;;4081765;28;20031;-86
2023/01/04 11:01:39;;;;;;;21.23;3.90;;;9.60;86.20;;;;;;4093457;28;20042;-86
2023/01/04 11:04:15;;;;;;;33.10;4.15;;;9.60;86.20;;;;;;4123679;28;20217;-86
2023/01/04 11:06:30;;;;;;;22.77;4.43;;;9.60;86.20;;;;;;4079028;29;20043;-86
2023/01/04 11:08:54;;;;;;;31.10;4.03;;;9.60;86.10;;;;;;4069938;29;20055;-85
2023/01/04 11:11:17;;;;;;;22.20;3.17;;;9.70;86.30;;;;;;4034320;29;20041;-88
2023/01/04 11:13:18;;;;;;;19.13;3.15;;;9.60;86.10;;;;;;4015853;29;20521;-87
2023/01/04 11:15:19;;;;;;;14.82;2.95;;;9.60;86.00;;;;;;4015753;29;20041;-87
2023/01/04 11:17:22;;;;;;;19.27;2.92;;;9.60;86.00;;;;;;4007061;29;20034;-85
2023/01/04 11:19:26;;;;;;;24.23;3.17;;;9.70;86.10;;;;;;4042756;29;20128;-86
2023/01/04 11:21:33;;;;;;;20.65;2.95;;;9.60;86.10;;;;;;4020996;29;20037;-87
2023/01/04 11:23:34;;;;;;;23.70;3.60;;;9.70;86.20;;;;;;4020504;29;20532;-85
2023/01/04 11:25:42;;;;;;;19.48;3.00;;;9.70;86.30;;;;;;4033500;29;20035;-85
2023/01/04 11:27:53;;;;;;;32.22;4.72;;;9.80;86.20;;;;;;4045649;29;20044;-88
2023/01/04 11:30:02;;;;;;;32.03;4.57;;;9.70;86.10;;;;;;4031610;29;20049;-87
2023/01/04 11:32:19;;;;;;;30.38;4.47;;;9.70;86.10;;;;;;4050474;29;20046;-88
2023/01/04 11:34:53;;;;;;;30.20;5.57;;;9.80;86.10;;;;;;4050783;29;20048;-87
2023/01/04 11:37:00;;;;;;;25.13;4.10;;;9.60;86.00;;;;;;4049970;29;20172;-89
2023/01/04 11:39:20;;;;;;;35.05;5.00;;;9.80;86.10;;;;;;4059926;29;20035;-88
2023/01/04 11:41:28;;;;;;;35.60;4.80;;;9.80;86.10;;;;;;4068489;28;20036;-87
2023/01/04 11:43:42;;;;;;;32.65;5.40;;;9.70;86.10;;;;;;4100130;28;20027;-86
2023/01/04 11:46:29;;;;;;;36.85;5.00;;;9.70;86.10;;;;;;4107068;28;20130;-87
2023/01/04 11:48:47;;;;;;;34.50;4.78;;;9.80;86.20;;;;;;4160882;28;20093;-86
2023/01/04 11:50:56;;;;;;;33.03;4.88;;;9.70;85.90;;;;;;4162363;28;20026;-86
2023/01/04 11:53:18;;;;;;;29.58;4.78;;;9.80;85.90;;;;;;4161312;28;20021;-86
2023/01/04 11:55:28;;;;;;;37.50;5.47;;;9.80;86.00;;;;;;4082109;29;20699;-87
2023/01/04 11:57:29;;;;;;;27.70;4.43;;;9.90;86.10;;;;;;4097378;28;20035;-86
2023/01/04 11:59:35;;;;;;;26.45;4.10;;;9.80;86.00;;;;;;4079911;29;20477;-88
2023/01/04 12:01:41;;;;;;;29.60;4.25;;;9.80;86.00;;;;;;4113012;28;20027;-87
2023/01/04 12:03:45;;;;;;;20.13;3.50;;;9.80;86.10;;;;;;4105819;28;20085;-86
2023/01/04 12:05:46;;;;;;;26.08;4.00;;;9.90;86.20;;;;;;4093834;28;20063;-85
2023/01/04 12:07:47;;;;;;;22.90;3.15;;;9.80;86.20;;;;;;4109146;28;20043;-86
2023/01/04 12:09:48;;;;;;;20.55;3.28;;;9.80;86.10;;;;;;4096106;28;20040;-85
2023/01/04 12:11:52;;;;;;;20.90;3.42;;;9.90;86.10;;;;;;4109390;28;20065;-86
2023/01/04 12:13:53;;;;;;;21.75;3.85;;;9.80;86.00;;;;;;4098437;28;20039;-87
2023/01/04 12:16:20;;;;;;;20.65;3.63;;;9.90;86.00;;;;;;4113212;28;20092;-86
2023/01/04 12:18:37;;;;;;;23.67;3.47;;;9.80;85.90;;;;;;4109221;28;20573;-88
2023/01/04 12:20:44;;;;;;;30.75;4.05;;;9.90;86.00;;;;;;4095964;28;20082;-86
2023/01/04 12:22:48;;;;;;;46.83;5.80;;;10.00;86.00;;;;;;4109827;28;20613;-85
2023/01/04 12:25:07;;;;;;;;;;;;;;;;;;;;;
2023/01/04 12:30:06;;;;;;;34.97;5.25;;;9.90;85.90;;;;;;4066093;29;20096;-86
2023/01/04 12:32:15;;;;;;;42.03;5.40;;;9.90;85.90;;;;;;4044299;29;20032;-87
2023/01/04 12:34:36;;;;;;;35.40;5.47;;;9.80;85.90;;;;;;4092285;28;20685;-87
2023/01/04 12:36:37;;;;;;;39.90;6.13;;;9.90;85.90;;;;;;4071775;29;20035;-87
2023/01/04 12:39:12;;;;;;;34.50;5.18;;;9.90;85.90;;;;;;4070522;29;20074;-89